Fishers, IN

1:11 AM EDT on March 30, 2015 (GMT -0400)
Indianapolis Sailing Club | | Change Station
CLOSE
Current Station
Personal Weather Station
Location: Geist Reservoir, IN
Elevation: 790 ft
Nearby Weather Stations

Elev 790 ft 39.93 °N, 85.95 °W | Updated 3 minutes ago

Overcast
Overcast
48.4 °F
Feels Like 41 °F
N
25.0
Wind Variable Wind from West

Today
High -- | Low -- °F
--% Chance of Precip.
Yesterday
High -- | Low -- °F
Precip. -- in
7:31 AM 8:06 PM
Waxing Gibbous, 77% visible
Pressure 29.96 in
Visibility 10.0 miles
Clouds Scattered Clouds 3200 ft
Scattered Clouds 3700 ft
Mostly Cloudy 4400 ft
Windchill 41 °F
Dew Point 43 °F
Humidity 81%
Rainfall 0.00 in
Snow Depth Not available.
UV 0 out of 12
Pollen 7.90 out of 12
Air Quality Not available.
Flu Activity Not available.
METAR KMQJ 300456Z AUTO 25011KT 10SM SCT032 SCT037 BKN044 08/02 A2996 RMK AO1

More Conditions Fewer Conditions

Pressure 29.96 in
Visibility 10.0 miles
Clouds Scattered Clouds 3200 ft
Scattered Clouds 3700 ft
Mostly Cloudy 4400 ft
Windchill 41 °F
Dew Point 43 °F
Humidity 81%
Rainfall 0.00 in
Snow Depth Not available.
UV 0 out of 12
Pollen 7.90 out of 12
Air Quality Not available.
Flu Activity Not available.
METAR KMQJ 300456Z AUTO 25011KT 10SM SCT032 SCT037 BKN044 08/02 A2996 RMK AO1

More Conditions Fewer Conditions

10-Day Weather Forecast

Almanac

Astronomy

Mar. 30, 2015 Rise Set
Actual Time
Civil Twilight
Nautical Twilight
Astronomical Twilight
Moon
Length of Visible Light
Length of Day
Tomorrow will be .
, % of the Moon is Illuminated

Today's Extremes

State Highs State Lows

Community

WunderPhotos

Upload Photos

1,809,437 photos uploaded!

WunderBlogs® & News

Nearby

Air Quality

  Air Quality AQ Index Pollutant
Not available.

Snow Depth

Station Depth Elevation

Earthquake Activity

City Distance Mag. Time & Date
Minimum magnitude displayed is 2.5.

Coastal Water Temperatures

Place Temperature

Stations

Nearby Weather Stations

Station Location Temp. Windchill Dew Point Humidity Wind Precip. Elev Updated Type